aviador You're here:

GMTN Decoded Metar

TETOUAN in MOROCCO
Report Time2018-02-18 21:00:00
UTC Time2018-02-18 22:03:16
Flight Rules vfr VFR
Wind030° at 02 kt
W.Decomp.*RWY 06: 1.7 kt HW 1 kt LCW
W.Rank030° ranks 27
Current wind is below 030° avg. (3.9)
Visibility8000 m
Phenomena:N/A
Clouds:Few 026 Hf
Broken 200 Hf
Expected CloudBase > 1,200 ft AGL from Temp-Dew spread
Ceiling20,000 ft
Temp13°C (ISA -2)
Dew Point10°C (82% RH)
AAT12.3°C
QNH1019 hPa
Density Alt-236 ft
Elevation33 ft
Report Wrong Elevation
Raw Report
GMTN 182100Z 03002KT 8000 FEW026 BKN200 13/10 Q1019 NOSIG=

Extra information for GMTN:More info

Metar Taf Metar & Taf Last 4 Metars F.Rules Stats Wind Profile Meteogram Temp Stats Airport Information Weather charts Add Link Nearby VenuesMetar ALERT Operation Metar Decoded Social comments